createdAt,value
2019-04-23T00:04:00.943Z,17.79
2019-04-23T00:06:33.790Z,17.77
2019-04-23T00:09:19.169Z,17.55
2019-04-23T00:14:11.544Z,17.56
2019-04-23T00:16:42.554Z,17.54
2019-04-23T00:19:12.022Z,17.61
2019-04-23T00:21:55.143Z,17.56
2019-04-23T00:24:46.659Z,17.47
2019-04-23T00:27:17.326Z,17.41
2019-04-23T00:29:37.421Z,17.30
2019-04-23T00:32:10.367Z,17.31
2019-04-23T00:34:42.668Z,17.30
2019-04-23T00:37:18.727Z,17.30
2019-04-23T00:39:42.368Z,17.25
2019-04-23T00:42:17.142Z,17.10
2019-04-23T00:44:47.808Z,17.19
2019-04-23T00:47:22.829Z,17.23
2019-04-23T00:49:50.898Z,17.23
2019-04-23T00:52:22.149Z,17.18
2019-04-23T00:54:57.973Z,17.19
2019-04-23T00:57:25.831Z,17.22
2019-04-23T01:00:03.448Z,17.29
2019-04-23T01:02:26.345Z,17.19
2019-04-23T01:04:59.672Z,17.16
2019-04-23T01:07:28.574Z,17.15
2019-04-23T01:12:37.733Z,16.93
2019-04-23T01:15:15.715Z,16.89
2019-04-23T01:17:39.546Z,16.76
2019-04-23T01:20:14.180Z,16.88
2019-04-23T01:22:25.641Z,16.87
2019-04-23T01:25:07.280Z,16.89
2019-04-23T01:27:55.893Z,16.80
2019-04-23T01:30:41.094Z,16.91
2019-04-23T01:32:54.633Z,16.75
2019-04-23T01:35:28.350Z,16.83
2019-04-23T01:38:04.808Z,16.90
2019-04-23T01:40:36.856Z,16.86
2019-04-23T01:43:02.753Z,16.91
2019-04-23T01:45:30.730Z,16.92
2019-04-23T01:48:11.087Z,16.74
2019-04-23T01:50:52.132Z,16.83
2019-04-23T01:55:49.794Z,16.87
2019-04-23T01:58:32.231Z,16.65
2019-04-23T02:01:07.177Z,16.74
2019-04-23T02:03:20.866Z,16.73
2019-04-23T02:06:13.337Z,16.74
2019-04-23T02:08:26.246Z,16.71
2019-04-23T02:11:04.828Z,16.83
2019-04-23T02:15:57.284Z,16.66
2019-04-23T02:18:52.855Z,16.62
2019-04-23T02:21:10.612Z,16.67
2019-04-23T02:23:44.311Z,16.40
2019-04-23T02:26:15.192Z,16.61
2019-04-23T02:29:07.584Z,16.49
2019-04-23T02:31:44.531Z,16.60
2019-04-23T02:34:00.498Z,16.55
2019-04-23T02:36:32.258Z,16.61
2019-04-23T02:38:56.148Z,16.31
2019-04-23T02:44:11.481Z,16.43
2019-04-23T02:46:31.712Z,16.22
2019-04-23T02:54:16.052Z,16.41
2019-04-23T02:56:46.301Z,16.38
2019-04-23T02:59:21.864Z,16.30
2019-04-23T03:04:26.532Z,16.37
2019-04-23T03:06:56.449Z,16.23
2019-04-23T03:09:31.660Z,16.19
2019-04-23T03:14:27.146Z,16.38
2019-04-23T03:19:52.323Z,16.08
2019-04-23T03:22:35.117Z,16.04
2019-04-23T03:27:50.004Z,16.01
2019-04-23T03:30:48.249Z,16.08
2019-04-23T03:38:13.946Z,16.17
2019-04-23T03:40:34.865Z,16.19
2019-04-23T03:43:10.488Z,16.18
2019-04-23T03:45:49.170Z,16.13
2019-04-23T03:48:17.751Z,16.08
2019-04-23T03:50:53.722Z,16.03
2019-04-23T03:53:29.920Z,16.22
2019-04-23T03:55:59.581Z,16.31
2019-04-23T03:58:41.394Z,16.05
2019-04-23T04:06:05.515Z,16.21
2019-04-23T04:16:01.309Z,16.04
2019-04-23T04:18:37.827Z,15.95
2019-04-23T04:21:09.626Z,15.99
2019-04-23T04:23:43.474Z,16.00
2019-04-23T04:31:30.885Z,15.97
2019-04-23T04:44:47.363Z,16.04
2019-04-23T04:46:34.567Z,15.94
2019-04-23T04:51:27.103Z,16.20
2019-04-23T04:54:00.909Z,16.18
2019-04-23T04:56:29.303Z,16.29
2019-04-23T04:59:05.254Z,16.26
2019-04-23T05:01:25.477Z,16.19
2019-04-23T05:03:58.251Z,16.05
2019-04-23T05:06:24.770Z,16.24
2019-04-23T05:09:00.675Z,16.21
2019-04-23T05:11:39.015Z,16.18
2019-04-23T05:14:08.136Z,16.31
2019-04-23T05:16:35.613Z,16.37
2019-04-23T05:19:19.805Z,16.43
2019-04-23T05:21:46.887Z,16.44
2019-04-23T05:24:08.560Z,16.48
2019-04-23T05:26:53.619Z,16.45
2019-04-23T05:29:29.112Z,16.07
2019-04-23T05:31:32.863Z,16.25
2019-04-23T05:34:10.015Z,16.40
2019-04-23T05:36:45.415Z,16.33
2019-04-23T05:39:20.849Z,16.18
2019-04-23T05:41:45.284Z,16.13
2019-04-23T05:44:21.100Z,16.20
2019-04-23T05:47:11.496Z,16.11
2019-04-23T05:49:43.084Z,16.04
2019-04-23T05:51:57.358Z,16.18
2019-04-23T05:54:26.623Z,16.02
2019-04-23T05:56:55.257Z,16.06
2019-04-23T05:59:33.047Z,16.11
2019-04-23T06:02:05.174Z,16.41
2019-04-23T06:07:16.993Z,16.39
2019-04-23T06:09:53.163Z,16.40
2019-04-23T06:12:18.785Z,16.34
2019-04-23T06:14:48.242Z,16.35
2019-04-23T06:19:45.405Z,16.48
2019-04-23T06:24:45.072Z,17.03
2019-04-23T06:27:21.740Z,17.48
2019-04-23T06:29:43.134Z,17.34
2019-04-23T06:32:22.253Z,17.52
2019-04-23T06:34:54.998Z,16.98
2019-04-23T06:37:27.692Z,17.03
2019-04-23T06:39:55.149Z,17.04
2019-04-23T06:42:23.502Z,17.23
2019-04-23T06:44:58.440Z,17.65
2019-04-23T06:47:25.991Z,17.60
2019-04-23T06:50:00.093Z,17.51
2019-04-23T06:52:24.846Z,17.42
2019-04-23T06:55:01.077Z,17.67
2019-04-23T06:57:33.579Z,17.88
2019-04-23T07:00:08.405Z,17.82
2019-04-23T07:02:37.663Z,17.80
2019-04-23T07:05:10.374Z,17.48
2019-04-23T07:10:15.819Z,17.90
2019-04-23T07:12:44.809Z,18.13
2019-04-23T07:15:30.952Z,18.05
2019-04-23T07:17:40.616Z,18.21
2019-04-23T07:22:49.969Z,18.31
2019-04-23T07:25:17.707Z,18.17
2019-04-23T07:27:47.640Z,18.29
2019-04-23T07:30:29.950Z,18.42
2019-04-23T07:33:01.172Z,18.32
2019-04-23T07:35:25.725Z,18.32
2019-04-23T07:38:06.108Z,18.30
2019-04-23T07:40:33.565Z,18.49
2019-04-23T07:43:15.560Z,18.79
2019-04-23T07:46:12.243Z,18.74
2019-04-23T07:48:32.550Z,18.83
2019-04-23T07:50:59.005Z,18.63
2019-04-23T07:53:44.051Z,18.56
2019-04-23T07:56:07.562Z,18.60
2019-04-23T07:58:33.183Z,18.46
2019-04-23T08:01:13.815Z,18.62
2019-04-23T08:03:45.125Z,18.59
2019-04-23T08:06:12.090Z,18.94
2019-04-23T08:08:48.802Z,18.87
2019-04-23T08:13:56.983Z,19.12
2019-04-23T08:18:53.846Z,19.24
2019-04-23T08:21:28.564Z,19.08
2019-04-23T08:24:06.619Z,19.31
2019-04-23T08:29:26.759Z,19.35
2019-04-23T08:34:35.773Z,19.33
2019-04-23T08:39:39.788Z,19.31
2019-04-23T08:42:27.102Z,19.70
2019-04-23T08:45:05.087Z,19.76
2019-04-23T08:52:16.678Z,19.92
2019-04-23T08:55:02.625Z,19.83
2019-04-23T08:57:21.457Z,20.03
2019-04-23T08:59:53.222Z,20.03
2019-04-23T09:02:31.263Z,19.63
2019-04-23T09:04:54.161Z,19.88
2019-04-23T09:07:29.772Z,20.02
2019-04-23T09:09:57.231Z,20.09
2019-04-23T09:12:28.339Z,20.25
2019-04-23T09:15:04.009Z,20.26
2019-04-23T09:17:34.644Z,20.33
2019-04-23T09:22:34.730Z,20.49
2019-04-23T09:27:36.582Z,20.45
2019-04-23T09:30:07.821Z,20.30
2019-04-23T09:35:24.030Z,20.63
2019-04-23T09:37:59.678Z,20.77
2019-04-23T09:41:08.452Z,20.71
2019-04-23T09:43:27.035Z,20.71
2019-04-23T09:46:17.449Z,20.52
2019-04-23T09:48:50.953Z,20.60
2019-04-23T09:51:17.407Z,20.88
2019-04-23T09:53:40.687Z,21.09
2019-04-23T09:56:14.154Z,21.25
2019-04-23T09:58:59.109Z,21.29
2019-04-23T10:03:52.113Z,21.34
2019-04-23T10:06:16.121Z,21.49
2019-04-23T10:08:46.809Z,21.52
2019-04-23T10:11:12.225Z,21.46
2019-04-23T10:13:44.804Z,21.47
2019-04-23T10:16:17.133Z,21.57
2019-04-23T10:18:47.035Z,21.58
2019-04-23T10:21:17.526Z,21.70
2019-04-23T10:23:47.568Z,21.84
2019-04-23T10:26:17.282Z,22.10
2019-04-23T10:28:49.766Z,22.07
2019-04-23T10:31:21.090Z,21.74
2019-04-23T10:33:52.246Z,21.91
2019-04-23T10:36:25.868Z,22.01
2019-04-23T10:39:00.594Z,22.42
2019-04-23T10:41:25.771Z,22.43
2019-04-23T10:44:00.752Z,22.50
2019-04-23T10:46:53.621Z,23.06
2019-04-23T10:54:48.525Z,23.24
2019-04-23T10:59:47.332Z,22.66
2019-04-23T11:17:52.047Z,23.76
2019-04-23T11:20:25.826Z,23.80
2019-04-23T11:22:48.130Z,23.53
2019-04-23T11:25:31.288Z,23.21
2019-04-23T11:27:52.413Z,23.40
2019-04-23T11:30:36.500Z,23.54
2019-04-23T11:33:02.755Z,23.83
2019-04-23T11:35:31.300Z,23.68
2019-04-23T11:40:25.517Z,24.06
2019-04-23T11:43:09.712Z,23.72
2019-04-23T11:51:15.839Z,24.19
2019-04-23T11:51:15.839Z,24.58
2019-04-23T11:53:18.436Z,24.38
2019-04-23T11:55:48.689Z,24.55
2019-04-23T12:01:02.471Z,24.81
2019-04-23T12:03:19.649Z,24.72
2019-04-23T12:06:12.076Z,25.09
2019-04-23T12:08:44.710Z,25.29
2019-04-23T12:11:50.247Z,25.31
2019-04-23T12:14:15.999Z,25.73
2019-04-23T12:16:45.029Z,25.47
2019-04-23T12:19:28.033Z,25.17
2019-04-23T12:21:44.003Z,25.48
2019-04-23T12:24:16.267Z,25.51
2019-04-23T12:26:44.406Z,25.68
2019-04-23T12:29:25.619Z,25.55
2019-04-23T12:31:47.749Z,25.43
2019-04-23T12:34:20.646Z,25.73
2019-04-23T12:39:23.189Z,25.73
2019-04-23T12:41:54.608Z,25.90
2019-04-23T12:44:22.069Z,25.72
2019-04-23T12:46:57.545Z,25.67
2019-04-23T12:49:44.606Z,25.75
2019-04-23T12:52:02.789Z,25.93
2019-04-23T12:54:41.262Z,25.28
2019-04-23T12:57:04.821Z,25.74
2019-04-23T12:59:36.812Z,25.77
2019-04-23T13:02:19.889Z,25.61
2019-04-23T13:04:43.930Z,25.70
2019-04-23T13:07:09.064Z,25.78
2019-04-23T13:09:54.103Z,25.54
2019-04-23T13:12:32.832Z,25.78
2019-04-23T13:14:56.793Z,26.12
2019-04-23T13:17:48.953Z,25.87
2019-04-23T13:22:31.541Z,26.52
2019-04-23T13:25:09.265Z,27.01
2019-04-23T13:27:55.586Z,27.11
2019-04-23T13:30:23.173Z,27.43
2019-04-23T13:32:55.303Z,27.66
2019-04-23T13:37:59.320Z,27.86
2019-04-23T13:40:27.733Z,28.43
2019-04-23T13:43:01.002Z,28.61
2019-04-23T13:45:53.031Z,28.62
2019-04-23T13:48:03.493Z,28.75
2019-04-23T13:50:47.798Z,29.14
2019-04-23T13:55:30.315Z,31.65
2019-04-23T14:03:17.609Z,31.02
2019-04-23T14:06:10.710Z,30.20
2019-04-23T14:08:30.601Z,30.31
2019-04-23T14:11:02.273Z,29.86
2019-04-23T14:13:37.284Z,29.68
2019-04-23T14:16:04.658Z,29.95
2019-04-23T14:18:53.973Z,29.67
2019-04-23T14:21:08.632Z,28.73
2019-04-23T14:23:52.474Z,28.96
2019-04-23T14:33:46.899Z,28.70
2019-04-23T14:36:17.730Z,29.07
2019-04-23T14:38:45.818Z,28.91
2019-04-23T14:46:41.404Z,27.94
2019-04-23T14:48:52.114Z,27.93
2019-04-23T14:53:48.338Z,27.14
2019-04-23T14:56:23.904Z,27.23
2019-04-23T14:59:07.372Z,26.83
2019-04-23T15:03:57.540Z,26.31
2019-04-23T15:09:19.666Z,25.95
2019-04-23T15:14:06.566Z,25.48
2019-04-23T15:16:39.146Z,25.21
2019-04-23T15:29:01.390Z,24.88
2019-04-23T15:31:55.457Z,25.00
2019-04-23T15:42:00.823Z,24.81
2019-04-23T15:44:16.361Z,24.78
2019-04-23T15:46:57.206Z,24.91
2019-04-23T15:49:29.782Z,24.81
2019-04-23T15:51:56.707Z,24.88
2019-04-23T15:54:35.402Z,24.76
2019-04-23T15:57:05.855Z,24.70
2019-04-23T16:01:41.848Z,24.86
2019-04-23T16:04:08.758Z,24.82
2019-04-23T16:06:38.929Z,24.76
2019-04-23T16:09:36.176Z,24.88
2019-04-23T16:12:06.212Z,24.74
2019-04-23T16:14:49.411Z,24.56
2019-04-23T16:17:24.025Z,24.63
2019-04-23T16:20:19.108Z,24.50
2019-04-23T16:22:36.731Z,24.23
2019-04-23T16:27:34.936Z,24.26
2019-04-23T16:30:17.384Z,24.03
2019-04-23T16:32:54.298Z,23.83
2019-04-23T16:35:28.276Z,23.99
2019-04-23T16:38:01.411Z,23.98
2019-04-23T16:42:59.694Z,23.72
2019-04-23T16:45:29.380Z,23.79
2019-04-23T16:47:56.575Z,23.67
2019-04-23T16:50:30.977Z,23.67
2019-04-23T16:53:03.961Z,23.60
2019-04-23T16:55:30.578Z,23.59
2019-04-23T16:58:23.157Z,23.45
2019-04-23T17:00:43.740Z,23.60
2019-04-23T17:03:19.378Z,23.49
2019-04-23T17:05:39.318Z,23.36
2019-04-23T17:08:35.831Z,23.40
2019-04-23T17:10:45.760Z,23.24
2019-04-23T17:13:24.037Z,23.26
2019-04-23T17:18:24.546Z,23.20
2019-04-23T17:20:52.832Z,23.12
2019-04-23T17:23:34.589Z,22.96
2019-04-23T17:25:55.640Z,23.00
2019-04-23T17:31:26.338Z,23.07
2019-04-23T17:33:51.902Z,23.05
2019-04-23T17:36:26.625Z,22.90
2019-04-23T17:41:41.706Z,22.73
2019-04-23T17:44:18.898Z,22.79
2019-04-23T17:46:43.178Z,22.80
2019-04-23T17:49:10.821Z,22.66
2019-04-23T17:51:42.622Z,22.58
2019-04-23T17:56:54.141Z,22.52
2019-04-23T18:01:59.225Z,22.40
2019-04-23T18:04:30.746Z,22.34
2019-04-23T18:06:52.368Z,22.33
2019-04-23T18:09:32.793Z,22.21
2019-04-23T18:11:54.347Z,22.29
2019-04-23T18:14:16.551Z,22.30
2019-04-23T18:16:57.526Z,22.17
2019-04-23T18:19:24.528Z,22.05
2019-04-23T18:24:59.369Z,21.84
2019-04-23T18:27:26.250Z,21.79
2019-04-23T18:30:09.943Z,21.91
2019-04-23T18:32:43.412Z,21.85
2019-04-23T18:40:05.197Z,21.60
2019-04-23T18:42:46.414Z,21.62
2019-04-23T18:45:24.472Z,21.55
2019-04-23T18:47:51.921Z,21.47
2019-04-23T18:50:26.884Z,21.41
2019-04-23T18:55:41.236Z,21.35
2019-04-23T18:57:51.883Z,21.36
2019-04-23T19:00:37.280Z,21.40
2019-04-23T19:03:11.934Z,21.41
2019-04-23T19:06:10.485Z,21.32
2019-04-23T19:08:52.096Z,21.18
2019-04-23T19:11:09.162Z,21.21
2019-04-23T19:13:32.892Z,21.15
2019-04-23T19:16:04.028Z,21.14
2019-04-23T19:18:43.093Z,20.98
2019-04-23T19:23:46.913Z,20.80
2019-04-23T19:26:27.441Z,20.87
2019-04-23T19:28:52.961Z,20.92
2019-04-23T19:34:21.329Z,20.68
2019-04-23T19:36:52.576Z,20.64
2019-04-23T19:39:19.312Z,20.49
2019-04-23T19:44:31.348Z,20.56
2019-04-23T19:46:56.174Z,20.50
2019-04-23T19:49:19.686Z,20.41
2019-04-23T19:54:25.989Z,20.20
2019-04-23T19:57:04.743Z,20.18
2019-04-23T19:59:23.440Z,20.18
2019-04-23T20:04:32.183Z,20.36
2019-04-23T20:14:41.659Z,20.23
2019-04-23T20:22:06.207Z,20.12
2019-04-23T20:24:55.473Z,20.07
2019-04-23T20:27:06.203Z,20.12
2019-04-23T20:35:00.390Z,19.99
2019-04-23T20:37:44.579Z,19.89
2019-04-23T20:39:58.265Z,19.88
2019-04-23T20:42:27.178Z,19.85
2019-04-23T20:45:02.591Z,19.75
2019-04-23T20:47:32.620Z,19.74
2019-04-23T20:50:03.418Z,19.67
2019-04-23T20:52:29.243Z,19.80
2019-04-23T20:57:45.444Z,19.90
2019-04-23T21:00:20.545Z,19.91
2019-04-23T21:03:30.442Z,19.85
2019-04-23T21:05:27.684Z,19.93
2019-04-23T21:08:28.398Z,19.89
2019-04-23T21:10:42.965Z,19.87
2019-04-23T21:13:15.768Z,19.83
2019-04-23T21:20:55.040Z,19.85
2019-04-23T21:23:29.916Z,19.83
2019-04-23T21:31:06.355Z,19.74
2019-04-23T21:33:35.386Z,19.76
2019-04-23T21:36:13.955Z,19.76
2019-04-23T21:51:38.400Z,19.73
2019-04-23T21:53:55.519Z,19.81
2019-04-23T21:56:35.380Z,19.75
2019-04-23T22:01:36.702Z,19.74
2019-04-23T22:06:43.337Z,19.69
2019-04-23T22:09:12.391Z,19.73
2019-04-23T22:19:20.257Z,19.82
2019-04-23T22:21:47.485Z,19.92
2019-04-23T22:31:47.380Z,19.72
2019-04-23T22:34:22.010Z,19.56
2019-04-23T22:36:56.278Z,19.57
2019-04-23T22:39:25.374Z,19.62
2019-04-23T22:41:55.864Z,19.38
2019-04-23T22:44:34.063Z,19.45
2019-04-23T22:47:02.221Z,19.54
2019-04-23T22:49:57.229Z,19.40
2019-04-23T22:54:39.801Z,19.43
2019-04-23T22:57:26.172Z,19.59
2019-04-23T22:59:48.524Z,19.57
2019-04-23T23:02:36.649Z,19.58
2019-04-23T23:05:09.923Z,19.62
2019-04-23T23:07:39.661Z,19.67
2019-04-23T23:10:08.439Z,19.60
2019-04-23T23:12:55.966Z,19.59
2019-04-23T23:17:54.604Z,19.54
2019-04-23T23:22:52.283Z,19.34
2019-04-23T23:25:20.563Z,19.41
2019-04-23T23:27:54.258Z,19.49
2019-04-23T23:30:23.398Z,19.57
2019-04-23T23:32:55.580Z,19.54
2019-04-23T23:35:22.337Z,19.56
2019-04-23T23:37:56.540Z,19.46
2019-04-23T23:40:25.527Z,19.55
2019-04-23T23:43:05.773Z,19.57
2019-04-23T23:45:31.405Z,19.55
2019-04-23T23:55:27.868Z,19.49
2019-04-23T23:58:10.744Z,19.46
